Airfield :
LOGIN :

Register | Disclaimer

   EN    FR    IT 

 










Legend :    VFR   Marginal VFR   IFR   Intensive IFR   Very Intensive IFR
Visi :
Ceiling :
>= 8 km
>= 3000ft
5 to 8 km
1000 to 3000 ft
1500m to 5 km
500 to 1000 ft
800 to 1500m
200 to 500 ft
< 800m
< 200 ft
Symbols :   Thunderstorms  Fog  Heavy snow  Heavy precipitations  Wind > 20 kt
SIGMETs :     Misc.  Thunderstorms  Icing  Turbulence  Mountain Waves  Volcanic Ashes






- Airport Elevation : 160 ft
- IATA code : LRT


LFRH - Lorient Lann Bihoue

CURRENT METAR :
  • 071430Z AUTO 25011KT CAVOK 17/12 Q1023 NOSIG

EXPIRED METARs :
  • 071400Z AUTO 26011KT 230V290 CAVOK 17/11 Q1023 NOSIG
  • 071330Z AUTO 25011KT CAVOK 18/11 Q1023 NOSIG
  • 071300Z AUTO 23010KT CAVOK 17/10 Q1023 NOSIG
  • 071230Z AUTO 23011KT CAVOK 18/10 Q1024 NOSIG
  • 071200Z AUTO 25010KT 220V290 CAVOK 17/10 Q1024 NOSIG

TAF TAF LFRH
Valid from the 07 at 12:00 until the 08 at 12:00 UTC


071100Z 0712/0812 25010KT CAVOK
BECMG 0720/0723 35005KT
BECMG 0810/0812 27010KT



MET'MAP, your aeronautical weather chart ! - Copyright ORBIFLY December 2007 - Disclaimer

ORBIFLY MET'MAP TEAM :

Programming & Development : Alexandra Zaïnal
Concept & original design : Baudouin d'Aumeries
Assistance for programming : Marc-Olivier Méhu
Technical & hardware support : Manuel Goepfert

Contact : metmap@orbifly.com




SOURCES & CREDITS :

   NOAA